sensor_id;sensor_type;location;lat;lon;timestamp;pressure;altitude;pressure_sealevel;temperature;humidity
57442;BME280;43284;47.042;15.498;2022-09-17T00:01:46;96486.25;;;11.85;100.00
57442;BME280;43284;47.042;15.498;2022-09-17T00:04:13;96488.13;;;11.83;100.00
57442;BME280;43284;47.042;15.498;2022-09-17T00:06:41;96500.59;;;11.79;100.00
57442;BME280;43284;47.042;15.498;2022-09-17T00:09:09;96495.34;;;11.79;100.00
57442;BME280;43284;47.042;15.498;2022-09-17T00:11:39;96497.97;;;11.79;100.00
57442;BME280;43284;47.042;15.498;2022-09-17T00:14:12;96496.91;;;11.82;100.00
57442;BME280;43284;47.042;15.498;2022-09-17T00:16:44;96486.34;;;11.83;100.00
57442;BME280;43284;47.042;15.498;2022-09-17T00:19:21;96484.47;;;11.85;100.00
57442;BME280;43284;47.042;15.498;2022-09-17T00:21:58;96486.34;;;11.83;100.00
57442;BME280;43284;47.042;15.498;2022-09-17T00:24:26;96483.75;;;11.83;100.00
57442;BME280;43284;47.042;15.498;2022-09-17T00:26:54;96473.00;;;11.88;100.00
57442;BME280;43284;47.042;15.498;2022-09-17T00:29:28;96477.19;;;11.90;100.00
57442;BME280;43284;47.042;15.498;2022-09-17T00:32:12;96471.88;;;11.92;100.00
57442;BME280;43284;47.042;15.498;2022-09-17T00:34:42;96466.72;;;11.90;100.00
57442;BME280;43284;47.042;15.498;2022-09-17T00:37:12;96474.47;;;11.92;100.00
57442;BME280;43284;47.042;15.498;2022-09-17T00:39:50;96467.53;;;11.91;100.00
57442;BME280;43284;47.042;15.498;2022-09-17T00:42:24;96455.28;;;11.91;100.00
57442;BME280;43284;47.042;15.498;2022-09-17T00:44:56;96448.16;;;11.93;100.00
57442;BME280;43284;47.042;15.498;2022-09-17T00:47:37;96449.78;;;11.96;100.00
57442;BME280;43284;47.042;15.498;2022-09-17T00:50:18;96450.59;;;11.97;100.00
57442;BME280;43284;47.042;15.498;2022-09-17T00:52:56;96446.19;;;11.97;100.00
57442;BME280;43284;47.042;15.498;2022-09-17T00:55:39;96443.50;;;11.99;100.00
57442;BME280;43284;47.042;15.498;2022-09-17T01:01:39;96419.78;;;12.00;100.00
57442;BME280;43284;47.042;15.498;2022-09-17T01:04:20;96428.38;;;12.02;100.00
57442;BME280;43284;47.042;15.498;2022-09-17T01:09:41;96420.44;;;12.04;100.00
57442;BME280;43284;47.042;15.498;2022-09-17T01:15:11;96432.59;;;12.05;100.00
57442;BME280;43284;47.042;15.498;2022-09-17T01:21:14;96432.06;;;12.00;100.00
57442;BME280;43284;47.042;15.498;2022-09-17T01:24:00;96418.13;;;11.99;100.00
57442;BME280;43284;47.042;15.498;2022-09-17T01:27:02;96413.63;;;12.01;100.00
57442;BME280;43284;47.042;15.498;2022-09-17T01:32:27;96424.59;;;11.93;100.00
57442;BME280;43284;47.042;15.498;2022-09-17T01:35:09;96416.75;;;11.93;100.00
57442;BME280;43284;47.042;15.498;2022-09-17T01:44:11;96411.03;;;11.87;100.00
57442;BME280;43284;47.042;15.498;2022-09-17T01:47:06;96403.63;;;11.93;100.00
57442;BME280;43284;47.042;15.498;2022-09-17T01:49:37;96392.03;;;11.98;100.00
57442;BME280;43284;47.042;15.498;2022-09-17T01:52:08;96388.88;;;11.92;100.00
57442;BME280;43284;47.042;15.498;2022-09-17T01:54:50;96387.31;;;11.90;100.00
57442;BME280;43284;47.042;15.498;2022-09-17T01:57:37;96401.25;;;11.90;100.00
57442;BME280;43284;47.042;15.498;2022-09-17T02:00:10;96406.47;;;11.90;100.00
57442;BME280;43284;47.042;15.498;2022-09-17T02:02:53;96418.75;;;11.90;100.00
57442;BME280;43284;47.042;15.498;2022-09-17T02:05:41;96423.13;;;11.89;100.00
57442;BME280;43284;47.042;15.498;2022-09-17T02:08:20;96427.34;;;11.92;100.00
57442;BME280;43284;47.042;15.498;2022-09-17T02:10:58;96441.06;;;11.95;100.00
57442;BME280;43284;47.042;15.498;2022-09-17T02:13:46;96431.44;;;11.96;100.00
57442;BME280;43284;47.042;15.498;2022-09-17T02:16:30;96444.53;;;11.96;100.00
57442;BME280;43284;47.042;15.498;2022-09-17T02:19:30;96439.28;;;11.96;100.00
57442;BME280;43284;47.042;15.498;2022-09-17T02:22:13;96433.84;;;11.99;100.00
57442;BME280;43284;47.042;15.498;2022-09-17T02:27:56;96408.72;;;12.09;100.00
57442;BME280;43284;47.042;15.498;2022-09-17T02:30:27;96408.91;;;12.06;100.00
57442;BME280;43284;47.042;15.498;2022-09-17T02:32:55;96411.75;;;12.03;100.00
57442;BME280;43284;47.042;15.498;2022-09-17T02:35:24;96411.84;;;12.02;100.00
57442;BME280;43284;47.042;15.498;2022-09-17T02:37:52;96411.09;;;12.00;100.00
57442;BME280;43284;47.042;15.498;2022-09-17T02:40:23;96403.06;;;12.03;100.00
57442;BME280;43284;47.042;15.498;2022-09-17T02:59:51;96372.78;;;12.11;100.00
57442;BME280;43284;47.042;15.498;2022-09-17T03:02:31;96365.75;;;12.12;100.00
57442;BME280;43284;47.042;15.498;2022-09-17T03:05:00;96363.22;;;12.10;100.00
57442;BME280;43284;47.042;15.498;2022-09-17T03:07:30;96360.63;;;12.10;100.00
57442;BME280;43284;47.042;15.498;2022-09-17T03:09:58;96361.97;;;12.03;100.00
57442;BME280;43284;47.042;15.498;2022-09-17T03:12:26;96365.53;;;12.02;100.00
57442;BME280;43284;47.042;15.498;2022-09-17T03:14:54;96361.97;;;12.03;100.00
57442;BME280;43284;47.042;15.498;2022-09-17T03:17:23;96357.34;;;12.07;100.00
57442;BME280;43284;47.042;15.498;2022-09-17T03:19:51;96358.31;;;12.06;100.00
57442;BME280;43284;47.042;15.498;2022-09-17T03:22:18;96359.97;;;12.07;100.00
57442;BME280;43284;47.042;15.498;2022-09-17T03:24:45;96357.81;;;12.13;100.00
57442;BME280;43284;47.042;15.498;2022-09-17T03:27:13;96368.91;;;12.17;100.00
57442;BME280;43284;47.042;15.498;2022-09-17T03:29:40;96360.09;;;12.05;100.00
57442;BME280;43284;47.042;15.498;2022-09-17T03:32:08;96361.88;;;12.05;100.00
57442;BME280;43284;47.042;15.498;2022-09-17T03:34:36;96360.50;;;11.99;100.00
57442;BME280;43284;47.042;15.498;2022-09-17T03:37:03;96377.03;;;12.00;100.00
57442;BME280;43284;47.042;15.498;2022-09-17T03:39:31;96384.16;;;11.98;100.00
57442;BME280;43284;47.042;15.498;2022-09-17T03:41:59;96384.16;;;11.98;100.00
57442;BME280;43284;47.042;15.498;2022-09-17T03:44:26;96370.25;;;11.97;100.00
57442;BME280;43284;47.042;15.498;2022-09-17T03:46:53;96355.47;;;11.96;100.00
57442;BME280;43284;47.042;15.498;2022-09-17T03:49:21;96361.00;;;11.91;100.00
57442;BME280;43284;47.042;15.498;2022-09-17T03:51:49;96363.06;;;11.86;100.00
57442;BME280;43284;47.042;15.498;2022-09-17T03:54:17;96363.28;;;11.83;100.00
57442;BME280;43284;47.042;15.498;2022-09-17T03:56:45;96368.59;;;11.82;100.00
57442;BME280;43284;47.042;15.498;2022-09-17T03:59:12;96379.09;;;11.82;100.00
57442;BME280;43284;47.042;15.498;2022-09-17T04:01:39;96375.72;;;11.80;100.00
57442;BME280;43284;47.042;15.498;2022-09-17T04:04:07;96374.06;;;11.79;100.00
57442;BME280;43284;47.042;15.498;2022-09-17T04:06:34;96371.53;;;11.77;100.00
57442;BME280;43284;47.042;15.498;2022-09-17T04:09:02;96379.56;;;11.74;100.00
57442;BME280;43284;47.042;15.498;2022-09-17T04:11:30;96384.09;;;11.72;100.00
57442;BME280;43284;47.042;15.498;2022-09-17T04:13:58;96377.16;;;11.71;100.00
57442;BME280;43284;47.042;15.498;2022-09-17T04:16:25;96366.59;;;11.72;100.00
57442;BME280;43284;47.042;15.498;2022-09-17T04:18:53;96349.13;;;11.73;100.00
57442;BME280;43284;47.042;15.498;2022-09-17T04:21:21;96350.69;;;11.75;100.00
57442;BME280;43284;47.042;15.498;2022-09-17T04:23:49;96347.00;;;11.78;100.00
57442;BME280;43284;47.042;15.498;2022-09-17T04:26:17;96332.69;;;11.84;100.00
57442;BME280;43284;47.042;15.498;2022-09-17T04:28:44;96341.09;;;11.89;100.00
57442;BME280;43284;47.042;15.498;2022-09-17T04:31:11;96336.69;;;11.89;100.00
57442;BME280;43284;47.042;15.498;2022-09-17T04:33:38;96345.28;;;11.91;100.00
57442;BME280;43284;47.042;15.498;2022-09-17T04:36:06;96359.84;;;11.95;100.00
57442;BME280;43284;47.042;15.498;2022-09-17T04:38:33;96382.91;;;11.90;100.00
57442;BME280;43284;47.042;15.498;2022-09-17T04:41:00;96368.41;;;11.85;100.00
57442;BME280;43284;47.042;15.498;2022-09-17T04:43:28;96361.59;;;11.82;100.00
57442;BME280;43284;47.042;15.498;2022-09-17T04:45:56;96380.75;;;11.83;100.00
57442;BME280;43284;47.042;15.498;2022-09-17T04:48:23;96402.75;;;11.80;100.00
57442;BME280;43284;47.042;15.498;2022-09-17T04:50:51;96399.38;;;11.78;100.00
57442;BME280;43284;47.042;15.498;2022-09-17T04:53:19;96395.19;;;11.75;100.00
57442;BME280;43284;47.042;15.498;2022-09-17T04:55:47;96390.78;;;11.76;100.00
57442;BME280;43284;47.042;15.498;2022-09-17T04:58:14;96371.31;;;11.80;100.00
57442;BME280;43284;47.042;15.498;2022-09-17T05:00:42;96373.00;;;11.81;100.00
57442;BME280;43284;47.042;15.498;2022-09-17T05:03:09;96380.13;;;11.79;100.00
57442;BME280;43284;47.042;15.498;2022-09-17T05:05:37;96383.66;;;11.78;100.00
57442;BME280;43284;47.042;15.498;2022-09-17T05:08:05;96380.13;;;11.79;100.00
57442;BME280;43284;47.042;15.498;2022-09-17T05:10:34;96380.88;;;11.81;100.00
57442;BME280;43284;47.042;15.498;2022-09-17T05:13:01;96372.28;;;11.79;100.00
57442;BME280;43284;47.042;15.498;2022-09-17T05:15:29;96354.78;;;11.80;100.00
57442;BME280;43284;47.042;15.498;2022-09-17T05:17:56;96356.34;;;11.82;100.00
57442;BME280;43284;47.042;15.498;2022-09-17T05:20:24;96356.03;;;11.87;100.00
57442;BME280;43284;47.042;15.498;2022-09-17T05:22:51;96346.03;;;11.93;100.00
57442;BME280;43284;47.042;15.498;2022-09-17T05:25:21;96349.28;;;11.97;100.00
57442;BME280;43284;47.042;15.498;2022-09-17T05:27:53;96351.16;;;11.95;100.00
57442;BME280;43284;47.042;15.498;2022-09-17T05:30:22;96366.06;;;11.94;100.00
57442;BME280;43284;47.042;15.498;2022-09-17T05:33:02;96371.38;;;11.93;100.00
57442;BME280;43284;47.042;15.498;2022-09-17T05:35:31;96358.28;;;11.93;100.00
57442;BME280;43284;47.042;15.498;2022-09-17T05:38:01;96349.50;;;11.94;100.00
57442;BME280;43284;47.042;15.498;2022-09-17T05:40:30;96342.47;;;11.94;100.00
57442;BME280;43284;47.042;15.498;2022-09-17T05:43:06;96348.63;;;11.93;100.00
57442;BME280;43284;47.042;15.498;2022-09-17T05:45:35;96368.84;;;11.91;100.00
57442;BME280;43284;47.042;15.498;2022-09-17T05:48:05;96372.44;;;11.90;100.00
57442;BME280;43284;47.042;15.498;2022-09-17T05:50:33;96376.72;;;11.91;100.00
57442;BME280;43284;47.042;15.498;2022-09-17T05:53:09;96383.09;;;11.87;100.00
57442;BME280;43284;47.042;15.498;2022-09-17T05:55:37;96374.38;;;11.87;100.00
57442;BME280;43284;47.042;15.498;2022-09-17T05:58:10;96355.97;;;11.88;100.00
57442;BME280;43284;47.042;15.498;2022-09-17T06:00:39;96374.38;;;11.87;100.00
57442;BME280;43284;47.042;15.498;2022-09-17T06:03:12;96377.75;;;11.89;100.00
57442;BME280;43284;47.042;15.498;2022-09-17T06:05:40;96367.19;;;11.90;100.00
57442;BME280;43284;47.042;15.498;2022-09-17T06:08:08;96360.16;;;11.91;100.00
57442;BME280;43284;47.042;15.498;2022-09-17T06:10:37;96348.03;;;11.90;100.00
57442;BME280;43284;47.042;15.498;2022-09-17T06:13:05;96351.75;;;11.86;100.00
57442;BME280;43284;47.042;15.498;2022-09-17T06:15:34;96363.91;;;11.87;100.00
57442;BME280;43284;47.042;15.498;2022-09-17T06:18:01;96371.13;;;11.83;100.00
57442;BME280;43284;47.042;15.498;2022-09-17T06:20:28;96374.06;;;11.79;100.00
57442;BME280;43284;47.042;15.498;2022-09-17T06:22:59;96366.81;;;11.82;100.00
57442;BME280;43284;47.042;15.498;2022-09-17T06:25:27;96367.66;;;11.83;100.00
57442;BME280;43284;47.042;15.498;2022-09-17T06:27:55;96375.63;;;11.81;100.00
57442;BME280;43284;47.042;15.498;2022-09-17T06:30:22;96379.09;;;11.82;100.00
57442;BME280;43284;47.042;15.498;2022-09-17T06:32:50;96386.00;;;11.83;100.00
57442;BME280;43284;47.042;15.498;2022-09-17T06:35:17;96378.03;;;11.84;100.00
57442;BME280;43284;47.042;15.498;2022-09-17T06:37:45;96373.53;;;11.86;100.00
57442;BME280;43284;47.042;15.498;2022-09-17T06:40:16;96374.38;;;11.87;100.00
57442;BME280;43284;47.042;15.498;2022-09-17T06:42:48;96375.50;;;11.83;100.00
57442;BME280;43284;47.042;15.498;2022-09-17T06:45:16;96385.91;;;11.84;100.00
57442;BME280;43284;47.042;15.498;2022-09-17T06:47:43;96399.28;;;11.80;100.00
57442;BME280;43284;47.042;15.498;2022-09-17T06:50:11;96408.09;;;11.79;100.00
57442;BME280;43284;47.042;15.498;2022-09-17T06:52:38;96413.28;;;11.66;100.00
57442;BME280;43284;47.042;15.498;2022-09-17T06:55:05;96425.44;;;11.67;100.00
57442;BME280;43284;47.042;15.498;2022-09-17T06:57:33;96420.50;;;11.62;100.00
57442;BME280;43284;47.042;15.498;2022-09-17T07:00:01;96414.22;;;11.65;100.00
57442;BME280;43284;47.042;15.498;2022-09-17T07:02:28;96417.41;;;11.70;100.00
57442;BME280;43284;47.042;15.498;2022-09-17T07:04:56;96407.66;;;11.72;100.00
57442;BME280;43284;47.042;15.498;2022-09-17T07:07:23;96410.06;;;11.75;100.00
57442;BME280;43284;47.042;15.498;2022-09-17T07:10:11;96403.06;;;11.75;100.00
57442;BME280;43284;47.042;15.498;2022-09-17T07:12:49;96390.69;;;11.78;100.00
57442;BME280;43284;47.042;15.498;2022-09-17T07:15:16;96390.78;;;11.76;100.00
57442;BME280;43284;47.042;15.498;2022-09-17T07:17:45;96395.94;;;11.78;100.00
57442;BME280;43284;47.042;15.498;2022-09-17T07:20:13;96399.38;;;11.78;100.00
57442;BME280;43284;47.042;15.498;2022-09-17T07:22:40;96402.97;;;11.77;100.00
57442;BME280;43284;47.042;15.498;2022-09-17T07:25:08;96407.66;;;11.72;100.00
57442;BME280;43284;47.042;15.498;2022-09-17T07:27:41;96406.06;;;11.69;100.00
57442;BME280;43284;47.042;15.498;2022-09-17T07:30:10;96405.88;;;11.72;100.00
57442;BME280;43284;47.042;15.498;2022-09-17T07:32:40;96415.31;;;11.75;100.00
57442;BME280;43284;47.042;15.498;2022-09-17T07:35:09;96426.69;;;11.74;100.00
57442;BME280;43284;47.042;15.498;2022-09-17T07:37:37;96431.94;;;11.74;100.00
57442;BME280;43284;47.042;15.498;2022-09-17T07:40:06;96425.78;;;11.75;100.00
57442;BME280;43284;47.042;15.498;2022-09-17T07:42:44;96425.78;;;11.75;100.00
57442;BME280;43284;47.042;15.498;2022-09-17T07:45:11;96437.91;;;11.76;100.00
57442;BME280;43284;47.042;15.498;2022-09-17T07:47:39;96445.44;;;11.68;100.00
57442;BME280;43284;47.042;15.498;2022-09-17T07:50:07;96444.41;;;11.70;100.00
57442;BME280;43284;47.042;15.498;2022-09-17T07:52:35;96445.34;;;11.69;100.00
57442;BME280;43284;47.042;15.498;2022-09-17T07:55:02;96438.91;;;11.61;100.00
57442;BME280;43284;47.042;15.498;2022-09-17T07:57:29;96433.59;;;11.62;100.00
57442;BME280;43284;47.042;15.498;2022-09-17T07:59:57;96433.28;;;11.67;100.00
57442;BME280;43284;47.042;15.498;2022-09-17T08:02:24;96430.06;;;11.63;100.00
57442;BME280;43284;47.042;15.498;2022-09-17T08:04:51;96430.97;;;11.62;100.00
57442;BME280;43284;47.042;15.498;2022-09-17T08:07:19;96432.47;;;11.66;100.00
57442;BME280;43284;47.042;15.498;2022-09-17T08:09:46;96444.72;;;11.66;100.00
57442;BME280;43284;47.042;15.498;2022-09-17T08:12:13;96446.47;;;11.65;100.00
57442;BME280;43284;47.042;15.498;2022-09-17T08:14:41;96442.84;;;11.68;100.00
57442;BME280;43284;47.042;15.498;2022-09-17T08:17:10;96442.72;;;11.69;100.00
57442;BME280;43284;47.042;15.498;2022-09-17T08:19:37;96443.66;;;11.68;100.00
57442;BME280;43284;47.042;15.498;2022-09-17T08:22:04;96454.06;;;11.70;100.00
57442;BME280;43284;47.042;15.498;2022-09-17T08:24:31;96459.16;;;11.71;100.00
57442;BME280;43284;47.042;15.498;2022-09-17T08:26:59;96475.81;;;11.70;100.00
57442;BME280;43284;47.042;15.498;2022-09-17T08:29:26;96482.72;;;11.71;100.00
57442;BME280;43284;47.042;15.498;2022-09-17T08:31:53;96493.78;;;11.77;100.00
57442;BME280;43284;47.042;15.498;2022-09-17T08:34:20;96497.81;;;11.68;100.00
57442;BME280;43284;47.042;15.498;2022-09-17T08:36:47;96507.19;;;11.58;100.00
57442;BME280;43284;47.042;15.498;2022-09-17T08:39:15;96511.19;;;11.63;100.00
57442;BME280;43284;47.042;15.498;2022-09-17T08:41:57;96511.19;;;11.63;100.00
57442;BME280;43284;47.042;15.498;2022-09-17T08:44:48;96505.75;;;11.66;100.00
57442;BME280;43284;47.042;15.498;2022-09-17T08:47:26;96489.22;;;11.66;100.00
57442;BME280;43284;47.042;15.498;2022-09-17T08:49:58;96474.44;;;11.65;100.00
57442;BME280;43284;47.042;15.498;2022-09-17T08:58:23;96443.56;;;11.70;100.00
57442;BME280;43284;47.042;15.498;2022-09-17T09:01:23;96446.38;;;11.67;100.00
57442;BME280;43284;47.042;15.498;2022-09-17T09:06:49;96461.63;;;11.60;98.94
57442;BME280;43284;47.042;15.498;2022-09-17T09:09:22;96462.09;;;11.67;99.71
57442;BME280;43284;47.042;15.498;2022-09-17T09:12:05;96470.31;;;11.61;98.06
57442;BME280;43284;47.042;15.498;2022-09-17T09:14:47;96462.91;;;11.67;99.13
57442;BME280;43284;47.042;15.498;2022-09-17T09:17:19;96469.84;;;11.68;98.72
57442;BME280;43284;47.042;15.498;2022-09-17T09:19:48;96470.88;;;11.66;97.62
57442;BME280;43284;47.042;15.498;2022-09-17T09:22:39;96477.41;;;11.73;98.84
57442;BME280;43284;47.042;15.498;2022-09-17T09:33:38;96480.56;;;11.78;97.75
57442;BME280;43284;47.042;15.498;2022-09-17T09:36:13;96474.09;;;11.84;98.46
57442;BME280;43284;47.042;15.498;2022-09-17T09:38:49;96464.09;;;11.90;98.47
57442;BME280;43284;47.042;15.498;2022-09-17T09:41:37;96447.97;;;11.97;98.82
57442;BME280;43284;47.042;15.498;2022-09-17T09:44:12;96434.66;;;12.00;97.69
57442;BME280;43284;47.042;15.498;2022-09-17T09:46:53;96414.78;;;11.97;95.76
57442;BME280;43284;47.042;15.498;2022-09-17T09:52:14;96424.13;;;12.14;95.77
57442;BME280;43284;47.042;15.498;2022-09-17T09:57:52;96404.53;;;12.32;95.00
57442;BME280;43284;47.042;15.498;2022-09-17T10:00:31;96408.75;;;12.48;96.94
57442;BME280;43284;47.042;15.498;2022-09-17T10:05:38;96413.88;;;12.62;97.00
57442;BME280;43284;47.042;15.498;2022-09-17T10:08:13;96413.34;;;12.57;93.25
57442;BME280;43284;47.042;15.498;2022-09-17T10:11:03;96421.63;;;12.64;93.03
57442;BME280;43284;47.042;15.498;2022-09-17T10:13:33;96427.31;;;12.70;92.71
57442;BME280;43284;47.042;15.498;2022-09-17T10:18:47;96405.28;;;12.73;86.64
57442;BME280;43284;47.042;15.498;2022-09-17T10:21:38;96394.88;;;12.71;84.67
57442;BME280;43284;47.042;15.498;2022-09-17T10:24:23;96395.06;;;12.81;84.25
57442;BME280;43284;47.042;15.498;2022-09-17T10:27:00;96393.09;;;12.85;85.58
57442;BME280;43284;47.042;15.498;2022-09-17T10:29:29;96402.53;;;12.87;85.04
57442;BME280;43284;47.042;15.498;2022-09-17T10:31:57;96401.25;;;12.93;84.64
57442;BME280;43284;47.042;15.498;2022-09-17T10:34:26;96403.34;;;13.01;87.85
57442;BME280;43284;47.042;15.498;2022-09-17T10:36:54;96427.16;;;12.97;85.15
57442;BME280;43284;47.042;15.498;2022-09-17T10:39:37;96429.06;;;12.95;84.33
57442;BME280;43284;47.042;15.498;2022-09-17T10:42:14;96419.19;;;12.99;84.44
57442;BME280;43284;47.042;15.498;2022-09-17T10:44:53;96424.78;;;12.94;79.89
57442;BME280;43284;47.042;15.498;2022-09-17T10:47:34;96425.81;;;12.92;80.33
57442;BME280;43284;47.042;15.498;2022-09-17T10:50:16;96417.09;;;12.91;78.92
57442;BME280;43284;47.042;15.498;2022-09-17T10:52:53;96407.00;;;12.98;81.59
57442;BME280;43284;47.042;15.498;2022-09-17T10:55:37;96412.66;;;13.05;84.12
57442;BME280;43284;47.042;15.498;2022-09-17T11:09:37;96404.63;;;12.95;87.55
57442;BME280;43284;47.042;15.498;2022-09-17T11:15:09;96382.38;;;12.88;82.84
57442;BME280;43284;47.042;15.498;2022-09-17T11:18:02;96382.16;;;12.91;84.36
57442;BME280;43284;47.042;15.498;2022-09-17T11:26:03;96387.00;;;12.97;84.82
57442;BME280;43284;47.042;15.498;2022-09-17T11:31:56;96389.41;;;12.87;75.17
57442;BME280;43284;47.042;15.498;2022-09-17T11:34:41;96411.03;;;12.91;77.22
57442;BME280;43284;47.042;15.498;2022-09-17T11:45:59;96354.03;;;12.93;74.54
57442;BME280;43284;47.042;15.498;2022-09-17T11:48:43;96339.38;;;12.90;77.95
57442;BME280;43284;47.042;15.498;2022-09-17T11:51:25;96314.16;;;12.88;80.27
57442;BME280;43284;47.042;15.498;2022-09-17T11:54:00;96329.59;;;12.92;82.85
57442;BME280;43284;47.042;15.498;2022-09-17T11:56:46;96330.53;;;12.91;78.34
57442;BME280;43284;47.042;15.498;2022-09-17T12:02:29;96324.06;;;12.84;69.05
57442;BME280;43284;47.042;15.498;2022-09-17T12:05:20;96320.53;;;12.96;72.65
57442;BME280;43284;47.042;15.498;2022-09-17T12:13:43;96303.06;;;12.84;66.49
57442;BME280;43284;47.042;15.498;2022-09-17T12:16:20;96309.88;;;12.87;72.00
57442;BME280;43284;47.042;15.498;2022-09-17T12:19:16;96325.13;;;12.82;77.00
57442;BME280;43284;47.042;15.498;2022-09-17T12:21:54;96314.75;;;12.67;76.40
57442;BME280;43284;47.042;15.498;2022-09-17T12:24:28;96317.06;;;12.72;78.76
57442;BME280;43284;47.042;15.498;2022-09-17T12:29:55;96335.16;;;12.51;80.00
57442;BME280;43284;47.042;15.498;2022-09-17T12:35:40;96305.34;;;12.52;81.44
57442;BME280;43284;47.042;15.498;2022-09-17T12:38:26;96301.56;;;12.56;81.48
57442;BME280;43284;47.042;15.498;2022-09-17T12:47:16;96278.66;;;12.34;83.36
57442;BME280;43284;47.042;15.498;2022-09-17T12:56:08;96325.81;;;12.21;77.79
57442;BME280;43284;47.042;15.498;2022-09-17T12:59:12;96349.09;;;12.13;74.80
57442;BME280;43284;47.042;15.498;2022-09-17T13:02:01;96346.69;;;12.10;76.01
57442;BME280;43284;47.042;15.498;2022-09-17T13:04:46;96351.69;;;12.13;73.88
57442;BME280;43284;47.042;15.498;2022-09-17T13:10:12;96344.47;;;12.04;74.09
57442;BME280;43284;47.042;15.498;2022-09-17T13:15:45;96343.94;;;11.99;75.35
57442;BME280;43284;47.042;15.498;2022-09-17T13:18:44;96348.97;;;12.02;73.66
57442;BME280;43284;47.042;15.498;2022-09-17T13:21:22;96352.75;;;11.98;71.94
57442;BME280;43284;47.042;15.498;2022-09-17T13:23:57;96359.44;;;11.89;76.44
57442;BME280;43284;47.042;15.498;2022-09-17T13:26:36;96360.38;;;11.88;77.07
57442;BME280;43284;47.042;15.498;2022-09-17T13:29:05;96366.50;;;11.87;77.17
57442;BME280;43284;47.042;15.498;2022-09-17T13:36:49;96386.63;;;11.86;80.87
57442;BME280;43284;47.042;15.498;2022-09-17T13:44:41;96391.09;;;11.71;81.70
57442;BME280;43284;47.042;15.498;2022-09-17T13:47:17;96382.81;;;11.65;82.01
57442;BME280;43284;47.042;15.498;2022-09-17T13:49:49;96367.09;;;11.65;81.53
57442;BME280;43284;47.042;15.498;2022-09-17T13:55:03;96360.59;;;11.58;79.52
57442;BME280;43284;47.042;15.498;2022-09-17T13:57:33;96357.53;;;11.51;79.13
57442;BME280;43284;47.042;15.498;2022-09-17T14:00:51;96356.78;;;11.49;76.06
57442;BME280;43284;47.042;15.498;2022-09-17T14:30:14;96298.00;;;10.73;84.39
57442;BME280;43284;47.042;15.498;2022-09-17T14:37:59;96285.66;;;10.75;82.97
57442;BME280;43284;47.042;15.498;2022-09-17T14:40:31;96281.28;;;10.76;82.20
57442;BME280;43284;47.042;15.498;2022-09-17T14:43:01;96283.72;;;10.79;81.04
57442;BME280;43284;47.042;15.498;2022-09-17T14:45:32;96288.84;;;10.80;81.05
57442;BME280;43284;47.042;15.498;2022-09-17T14:48:31;96299.53;;;10.90;82.92
57442;BME280;43284;47.042;15.498;2022-09-17T14:51:25;96290.56;;;10.94;83.00
57442;BME280;43284;47.042;15.498;2022-09-17T14:56:33;96287.19;;;11.06;84.43
57442;BME280;43284;47.042;15.498;2022-09-17T14:59:01;96296.69;;;11.07;83.24
57442;BME280;43284;47.042;15.498;2022-09-17T15:01:29;96287.28;;;11.05;83.23
57442;BME280;43284;47.042;15.498;2022-09-17T15:06:40;96297.16;;;11.00;83.37
57442;BME280;43284;47.042;15.498;2022-09-17T15:09:24;96296.34;;;10.99;83.98
57442;BME280;43284;47.042;15.498;2022-09-17T15:11:59;96294.16;;;11.06;85.71
57442;BME280;43284;47.042;15.498;2022-09-17T15:14:30;96295.94;;;11.05;83.82
57442;BME280;43284;47.042;15.498;2022-09-17T15:17:01;96290.47;;;10.96;82.56
57442;BME280;43284;47.042;15.498;2022-09-17T15:19:54;96300.69;;;10.86;81.34
57442;BME280;43284;47.042;15.498;2022-09-17T15:22:26;96291.34;;;10.82;82.23
57442;BME280;43284;47.042;15.498;2022-09-17T15:25:03;96302.69;;;10.68;81.51
57442;BME280;43284;47.042;15.498;2022-09-17T15:27:41;96305.50;;;10.65;83.17
57442;BME280;43284;47.042;15.498;2022-09-17T15:30:16;96300.16;;;10.66;84.78
57442;BME280;43284;47.042;15.498;2022-09-17T15:32:49;96293.66;;;10.59;83.94
57442;BME280;43284;47.042;15.498;2022-09-17T15:35:24;96295.13;;;10.49;83.91
57442;BME280;43284;47.042;15.498;2022-09-17T15:37:58;96294.41;;;10.47;84.58
57442;BME280;43284;47.042;15.498;2022-09-17T15:40:39;96292.53;;;10.49;85.29
57442;BME280;43284;47.042;15.498;2022-09-17T15:43:27;96300.66;;;10.44;84.77
57442;BME280;43284;47.042;15.498;2022-09-17T15:45:55;96304.00;;;10.46;86.00
57442;BME280;43284;47.042;15.498;2022-09-17T15:50:56;96299.81;;;10.44;87.06
57442;BME280;43284;47.042;15.498;2022-09-17T15:53:29;96302.72;;;10.39;87.44
57442;BME280;43284;47.042;15.498;2022-09-17T15:56:17;96310.56;;;10.39;86.46
57442;BME280;43284;47.042;15.498;2022-09-17T16:08:59;96316.25;;;10.31;85.10
57442;BME280;43284;47.042;15.498;2022-09-17T16:11:29;96313.81;;;10.28;86.37
57442;BME280;43284;47.042;15.498;2022-09-17T16:13:59;96319.81;;;10.30;87.75
57442;BME280;43284;47.042;15.498;2022-09-17T16:16:32;96314.22;;;10.37;89.81
57442;BME280;43284;47.042;15.498;2022-09-17T16:18:59;96315.03;;;10.37;89.18
57442;BME280;43284;47.042;15.498;2022-09-17T16:21:27;96310.66;;;10.38;89.35
57442;BME280;43284;47.042;15.498;2022-09-17T16:23:55;96318.56;;;10.36;89.35
57442;BME280;43284;47.042;15.498;2022-09-17T16:26:31;96316.81;;;10.37;89.94
57442;BME280;43284;47.042;15.498;2022-09-17T16:29:04;96310.47;;;10.41;90.30
57442;BME280;43284;47.042;15.498;2022-09-17T16:31:33;96314.47;;;10.46;91.06
57442;BME280;43284;47.042;15.498;2022-09-17T16:34:01;96316.63;;;10.40;91.20